sensor_id;sensor_type;location;lat;lon;timestamp;pressure;altitude;pressure_sealevel;temperature;humidity
23574;BME280;11965;53.640;10.050;2023-05-19T00:01:52;102722.84;;;5.43;100.00
23574;BME280;11965;53.640;10.050;2023-05-19T00:04:20;102718.06;;;5.45;100.00
23574;BME280;11965;53.640;10.050;2023-05-19T00:06:49;102711.69;;;5.45;100.00
23574;BME280;11965;53.640;10.050;2023-05-19T00:09:17;102719.50;;;5.51;100.00
23574;BME280;11965;53.640;10.050;2023-05-19T00:11:45;102724.09;;;5.50;100.00
23574;BME280;11965;53.640;10.050;2023-05-19T00:14:13;102727.22;;;5.46;100.00
23574;BME280;11965;53.640;10.050;2023-05-19T00:16:42;102723.72;;;5.44;100.00
23574;BME280;11965;53.640;10.050;2023-05-19T00:19:08;102718.06;;;5.45;100.00
23574;BME280;11965;53.640;10.050;2023-05-19T00:21:36;102719.84;;;5.46;100.00
23574;BME280;11965;53.640;10.050;2023-05-19T00:24:04;102723.72;;;5.44;100.00
23574;BME280;11965;53.640;10.050;2023-05-19T00:26:32;102711.84;;;5.43;100.00
23574;BME280;11965;53.640;10.050;2023-05-19T00:29:04;102716.56;;;5.41;100.00
23574;BME280;11965;53.640;10.050;2023-05-19T00:31:31;102711.41;;;5.37;100.00
23574;BME280;11965;53.640;10.050;2023-05-19T00:33:59;102710.06;;;5.42;100.00
23574;BME280;11965;53.640;10.050;2023-05-19T00:36:27;102708.06;;;5.44;100.00
23574;BME280;11965;53.640;10.050;2023-05-19T00:38:55;102709.97;;;5.44;100.00
23574;BME280;11965;53.640;10.050;2023-05-19T00:41:23;102698.97;;;5.44;100.00
23574;BME280;11965;53.640;10.050;2023-05-19T00:43:50;102702.81;;;5.41;100.00
23574;BME280;11965;53.640;10.050;2023-05-19T00:46:19;102701.94;;;5.41;100.00
23574;BME280;11965;53.640;10.050;2023-05-19T00:48:47;102704.78;;;5.39;100.00
23574;BME280;11965;53.640;10.050;2023-05-19T00:51:15;102700.16;;;5.40;100.00
23574;BME280;11965;53.640;10.050;2023-05-19T00:53:45;102700.94;;;5.42;100.00
23574;BME280;11965;53.640;10.050;2023-05-19T00:56:14;102693.16;;;5.36;100.00
23574;BME280;11965;53.640;10.050;2023-05-19T00:58:43;102706.38;;;5.30;100.00
23574;BME280;11965;53.640;10.050;2023-05-19T01:01:11;102703.53;;;5.32;100.00
23574;BME280;11965;53.640;10.050;2023-05-19T01:03:43;102702.50;;;5.33;100.00
23574;BME280;11965;53.640;10.050;2023-05-19T01:06:11;102698.88;;;5.32;100.00
23574;BME280;11965;53.640;10.050;2023-05-19T01:08:39;102700.00;;;5.30;100.00
23574;BME280;11965;53.640;10.050;2023-05-19T01:11:11;102704.81;;;5.26;100.00
23574;BME280;11965;53.640;10.050;2023-05-19T01:13:38;102709.88;;;5.32;100.00
23574;BME280;11965;53.640;10.050;2023-05-19T01:16:11;102695.59;;;5.27;100.00
23574;BME280;11965;53.640;10.050;2023-05-19T01:18:46;102700.00;;;5.30;100.00
23574;BME280;11965;53.640;10.050;2023-05-19T01:21:59;102700.47;;;5.24;100.00
23574;BME280;11965;53.640;10.050;2023-05-19T01:25:02;102705.84;;;5.25;100.00
23574;BME280;11965;53.640;10.050;2023-05-19T01:28:00;102704.72;;;5.28;100.00
23574;BME280;11965;53.640;10.050;2023-05-19T01:30:48;102706.84;;;5.24;100.00
23574;BME280;11965;53.640;10.050;2023-05-19T01:33:18;102703.53;;;5.19;100.00
23574;BME280;11965;53.640;10.050;2023-05-19T01:35:51;102697.59;;;5.13;100.00
23574;BME280;11965;53.640;10.050;2023-05-19T01:38:20;102703.00;;;5.14;100.00
23574;BME280;11965;53.640;10.050;2023-05-19T01:40:49;102699.50;;;5.12;100.00
23574;BME280;11965;53.640;10.050;2023-05-19T01:43:19;102700.91;;;5.18;100.00
23574;BME280;11965;53.640;10.050;2023-05-19T01:45:50;102705.53;;;5.17;100.00
23574;BME280;11965;53.640;10.050;2023-05-19T01:48:18;102698.06;;;5.19;100.00
23574;BME280;11965;53.640;10.050;2023-05-19T01:50:46;102705.97;;;5.24;100.00
23574;BME280;11965;53.640;10.050;2023-05-19T01:53:14;102716.59;;;5.28;100.00
23574;BME280;11965;53.640;10.050;2023-05-19T01:55:43;102708.34;;;5.28;100.00
23574;BME280;11965;53.640;10.050;2023-05-19T01:58:19;102721.00;;;5.31;100.00
23574;BME280;11965;53.640;10.050;2023-05-19T02:00:53;102714.53;;;5.32;100.00
23574;BME280;11965;53.640;10.050;2023-05-19T02:03:36;102726.38;;;5.32;100.00
23574;BME280;11965;53.640;10.050;2023-05-19T02:06:20;102718.69;;;5.38;100.00
23574;BME280;11965;53.640;10.050;2023-05-19T02:09:01;102718.69;;;5.38;100.00
23574;BME280;11965;53.640;10.050;2023-05-19T02:11:35;102714.38;;;5.34;100.00
23574;BME280;11965;53.640;10.050;2023-05-19T02:14:08;102709.66;;;5.36;100.00
23574;BME280;11965;53.640;10.050;2023-05-19T02:16:44;102728.56;;;5.40;100.00
23574;BME280;11965;53.640;10.050;2023-05-19T02:19:21;102721.19;;;5.41;100.00
23574;BME280;11965;53.640;10.050;2023-05-19T02:21:55;102712.94;;;5.41;100.00
23574;BME280;11965;53.640;10.050;2023-05-19T02:24:22;102715.31;;;5.45;100.00
23574;BME280;11965;53.640;10.050;2023-05-19T02:26:50;102710.50;;;5.49;100.00
23574;BME280;11965;53.640;10.050;2023-05-19T02:29:18;102703.00;;;5.51;100.00
23574;BME280;11965;53.640;10.050;2023-05-19T02:31:47;102705.53;;;5.54;100.00
23574;BME280;11965;53.640;10.050;2023-05-19T02:34:18;102703.41;;;5.58;100.00
23574;BME280;11965;53.640;10.050;2023-05-19T02:36:45;102705.03;;;5.60;100.00
23574;BME280;11965;53.640;10.050;2023-05-19T02:39:14;102703.06;;;5.62;100.00
23574;BME280;11965;53.640;10.050;2023-05-19T02:41:42;102700.31;;;5.62;100.00
23574;BME280;11965;53.640;10.050;2023-05-19T02:44:09;102700.19;;;5.64;100.00
23574;BME280;11965;53.640;10.050;2023-05-19T02:46:36;102699.84;;;5.68;100.00
23574;BME280;11965;53.640;10.050;2023-05-19T02:49:06;102701.59;;;5.69;100.00
23574;BME280;11965;53.640;10.050;2023-05-19T02:51:33;102706.22;;;5.69;100.00
23574;BME280;11965;53.640;10.050;2023-05-19T02:53:59;102705.75;;;5.75;100.00
23574;BME280;11965;53.640;10.050;2023-05-19T02:56:26;102704.00;;;5.74;100.00
23574;BME280;11965;53.640;10.050;2023-05-19T02:58:53;102701.13;;;5.75;100.00
23574;BME280;11965;53.640;10.050;2023-05-19T03:01:20;102691.63;;;5.80;100.00
23574;BME280;11965;53.640;10.050;2023-05-19T03:03:48;102695.91;;;5.84;100.00
23574;BME280;11965;53.640;10.050;2023-05-19T03:06:17;102691.38;;;5.83;100.00
23574;BME280;11965;53.640;10.050;2023-05-19T03:08:48;102689.66;;;5.82;100.00
23574;BME280;11965;53.640;10.050;2023-05-19T03:11:15;102690.41;;;5.84;100.00
23574;BME280;11965;53.640;10.050;2023-05-19T03:13:42;102687.53;;;5.85;100.00
23574;BME280;11965;53.640;10.050;2023-05-19T03:16:09;102674.00;;;5.82;100.00
23574;BME280;11965;53.640;10.050;2023-05-19T03:18:39;102692.78;;;5.88;100.00
23574;BME280;11965;53.640;10.050;2023-05-19T03:21:06;102684.66;;;5.87;100.00
23574;BME280;11965;53.640;10.050;2023-05-19T03:23:34;102679.28;;;5.85;100.00
23574;BME280;11965;53.640;10.050;2023-05-19T03:26:02;102677.19;;;5.89;100.00
23574;BME280;11965;53.640;10.050;2023-05-19T03:28:29;102680.16;;;5.86;100.00
23574;BME280;11965;53.640;10.050;2023-05-19T03:30:56;102684.78;;;5.85;100.00
23574;BME280;11965;53.640;10.050;2023-05-19T03:33:27;102684.44;;;5.90;100.00
23574;BME280;11965;53.640;10.050;2023-05-19T03:35:55;102680.56;;;5.92;100.00
23574;BME280;11965;53.640;10.050;2023-05-19T03:38:24;102678.22;;;5.99;100.00
23574;BME280;11965;53.640;10.050;2023-05-19T03:40:57;102681.50;;;6.04;100.00
23574;BME280;11965;53.640;10.050;2023-05-19T03:43:24;102687.75;;;6.06;100.00
23574;BME280;11965;53.640;10.050;2023-05-19T03:45:58;102683.28;;;6.05;100.00
23574;BME280;11965;53.640;10.050;2023-05-19T03:48:44;102690.75;;;6.03;100.00
23574;BME280;11965;53.640;10.050;2023-05-19T03:51:31;102686.16;;;6.15;100.00
23574;BME280;11965;53.640;10.050;2023-05-19T03:54:11;102692.31;;;6.18;100.00
23574;BME280;11965;53.640;10.050;2023-05-19T03:56:41;102688.91;;;6.15;100.00
23574;BME280;11965;53.640;10.050;2023-05-19T03:59:08;102683.19;;;6.18;100.00
23574;BME280;11965;53.640;10.050;2023-05-19T04:01:36;102697.97;;;6.28;100.00
23574;BME280;11965;53.640;10.050;2023-05-19T04:04:03;102690.09;;;6.35;100.00
23574;BME280;11965;53.640;10.050;2023-05-19T04:06:30;102690.72;;;6.38;100.00
23574;BME280;11965;53.640;10.050;2023-05-19T04:08:58;102693.00;;;6.45;100.00
23574;BME280;11965;53.640;10.050;2023-05-19T04:11:25;102692.88;;;6.57;100.00
23574;BME280;11965;53.640;10.050;2023-05-19T04:13:53;102696.28;;;6.61;100.00
23574;BME280;11965;53.640;10.050;2023-05-19T04:16:20;102698.41;;;6.69;100.00
23574;BME280;11965;53.640;10.050;2023-05-19T04:18:47;102697.94;;;6.75;100.00
23574;BME280;11965;53.640;10.050;2023-05-19T04:21:14;102707.19;;;6.85;100.00
23574;BME280;11965;53.640;10.050;2023-05-19T04:23:41;102699.81;;;6.97;100.00
23574;BME280;11965;53.640;10.050;2023-05-19T04:26:08;102698.03;;;6.96;100.00
23574;BME280;11965;53.640;10.050;2023-05-19T04:28:37;102695.94;;;6.99;100.00
23574;BME280;11965;53.640;10.050;2023-05-19T04:31:08;102699.91;;;7.06;100.00
23574;BME280;11965;53.640;10.050;2023-05-19T04:33:38;102695.41;;;7.17;100.00
23574;BME280;11965;53.640;10.050;2023-05-19T04:36:06;102696.88;;;7.32;99.96
23574;BME280;11965;53.640;10.050;2023-05-19T04:38:37;102696.13;;;7.30;100.00
23574;BME280;11965;53.640;10.050;2023-05-19T04:41:06;102690.47;;;7.43;99.86
23574;BME280;11965;53.640;10.050;2023-05-19T04:43:37;102698.44;;;7.68;97.21
23574;BME280;11965;53.640;10.050;2023-05-19T04:46:08;102699.34;;;7.58;96.74
23574;BME280;11965;53.640;10.050;2023-05-19T04:48:38;102700.03;;;7.71;94.24
23574;BME280;11965;53.640;10.050;2023-05-19T04:51:05;102703.31;;;7.65;95.21
23574;BME280;11965;53.640;10.050;2023-05-19T04:53:32;102693.63;;;7.70;96.43
23574;BME280;11965;53.640;10.050;2023-05-19T04:56:00;102698.28;;;7.70;96.59
23574;BME280;11965;53.640;10.050;2023-05-19T04:58:29;102694.63;;;7.81;97.19
23574;BME280;11965;53.640;10.050;2023-05-19T05:00:59;102702.50;;;7.85;96.58
23574;BME280;11965;53.640;10.050;2023-05-19T05:03:29;102699.03;;;8.04;93.75
23574;BME280;11965;53.640;10.050;2023-05-19T05:05:57;102697.84;;;7.86;96.80
23574;BME280;11965;53.640;10.050;2023-05-19T05:08:25;102699.88;;;7.84;97.52
23574;BME280;11965;53.640;10.050;2023-05-19T05:10:53;102699.16;;;8.03;96.19
23574;BME280;11965;53.640;10.050;2023-05-19T05:13:22;102698.38;;;8.12;94.42
23574;BME280;11965;53.640;10.050;2023-05-19T05:15:50;102695.19;;;8.16;95.85
23574;BME280;11965;53.640;10.050;2023-05-19T05:18:20;102695.94;;;8.18;93.67
23574;BME280;11965;53.640;10.050;2023-05-19T05:20:52;102697.03;;;8.27;92.51
23574;BME280;11965;53.640;10.050;2023-05-19T05:23:21;102704.75;;;8.45;92.56
23574;BME280;11965;53.640;10.050;2023-05-19T05:25:49;102691.69;;;8.47;93.61
23574;BME280;11965;53.640;10.050;2023-05-19T05:28:18;102696.97;;;8.59;91.54
23574;BME280;11965;53.640;10.050;2023-05-19T05:30:46;102698.09;;;8.78;89.88
23574;BME280;11965;53.640;10.050;2023-05-19T05:33:14;102708.47;;;8.85;90.60
23574;BME280;11965;53.640;10.050;2023-05-19T05:35:42;102703.50;;;8.79;92.95
23574;BME280;11965;53.640;10.050;2023-05-19T05:38:14;102701.31;;;8.73;92.40
23574;BME280;11965;53.640;10.050;2023-05-19T05:40:41;102708.38;;;8.97;89.49
23574;BME280;11965;53.640;10.050;2023-05-19T05:43:09;102705.66;;;9.06;89.98
23574;BME280;11965;53.640;10.050;2023-05-19T05:45:43;102701.34;;;9.23;88.42
23574;BME280;11965;53.640;10.050;2023-05-19T05:48:11;102701.63;;;9.20;88.43
23574;BME280;11965;53.640;10.050;2023-05-19T05:50:42;102704.00;;;9.35;88.57
23574;BME280;11965;53.640;10.050;2023-05-19T05:53:18;102707.06;;;9.32;89.08
23574;BME280;11965;53.640;10.050;2023-05-19T05:55:48;102710.03;;;9.49;85.71
23574;BME280;11965;53.640;10.050;2023-05-19T05:58:16;102716.34;;;9.81;84.07
23574;BME280;11965;53.640;10.050;2023-05-19T06:00:43;102715.19;;;9.83;83.47
23574;BME280;11965;53.640;10.050;2023-05-19T06:03:13;102706.44;;;9.88;82.70
23574;BME280;11965;53.640;10.050;2023-05-19T06:05:42;102711.97;;;10.07;83.87
23574;BME280;11965;53.640;10.050;2023-05-19T06:08:09;102709.97;;;10.00;82.36
23574;BME280;11965;53.640;10.050;2023-05-19T06:10:38;102709.38;;;10.06;82.69
23574;BME280;11965;53.640;10.050;2023-05-19T06:13:09;102706.00;;;10.12;84.76
23574;BME280;11965;53.640;10.050;2023-05-19T06:15:39;102700.16;;;10.25;81.40
23574;BME280;11965;53.640;10.050;2023-05-19T06:18:16;102697.22;;;10.55;77.70
23574;BME280;11965;53.640;10.050;2023-05-19T06:20:43;102704.97;;;10.52;79.42
23574;BME280;11965;53.640;10.050;2023-05-19T06:23:11;102700.16;;;10.54;76.69
23574;BME280;11965;53.640;10.050;2023-05-19T06:25:40;102702.13;;;10.81;76.61
23574;BME280;11965;53.640;10.050;2023-05-19T06:28:08;102698.13;;;10.93;75.05
23574;BME280;11965;53.640;10.050;2023-05-19T06:30:37;102702.81;;;10.93;75.88
23574;BME280;11965;53.640;10.050;2023-05-19T06:33:25;102699.81;;;11.14;72.83
23574;BME280;11965;53.640;10.050;2023-05-19T06:35:52;102695.59;;;11.10;76.91
23574;BME280;11965;53.640;10.050;2023-05-19T06:38:20;102699.06;;;11.12;78.94
23574;BME280;11965;53.640;10.050;2023-05-19T06:40:48;102696.22;;;11.31;76.71
23574;BME280;11965;53.640;10.050;2023-05-19T06:43:15;102703.16;;;11.45;75.84
23574;BME280;11965;53.640;10.050;2023-05-19T06:45:54;102703.84;;;11.29;75.68
23574;BME280;11965;53.640;10.050;2023-05-19T06:48:23;102703.75;;;11.39;76.70
23574;BME280;11965;53.640;10.050;2023-05-19T06:50:51;102699.75;;;11.51;77.45
23574;BME280;11965;53.640;10.050;2023-05-19T06:53:22;102707.56;;;11.83;72.51
23574;BME280;11965;53.640;10.050;2023-05-19T06:55:51;102697.06;;;12.05;70.64
23574;BME280;11965;53.640;10.050;2023-05-19T06:58:22;102699.91;;;12.13;70.24
23574;BME280;11965;53.640;10.050;2023-05-19T07:00:49;102695.28;;;12.40;68.43
23574;BME280;11965;53.640;10.050;2023-05-19T07:03:16;102708.00;;;12.24;69.63
23574;BME280;11965;53.640;10.050;2023-05-19T07:05:43;102697.50;;;12.36;69.46
23574;BME280;11965;53.640;10.050;2023-05-19T07:08:10;102697.97;;;12.49;69.39
23574;BME280;11965;53.640;10.050;2023-05-19T07:10:39;102697.41;;;12.72;68.59
23574;BME280;11965;53.640;10.050;2023-05-19T07:13:12;102691.84;;;12.98;66.86
23574;BME280;11965;53.640;10.050;2023-05-19T07:15:40;102700.31;;;12.88;67.90
23574;BME280;11965;53.640;10.050;2023-05-19T07:18:07;102695.41;;;12.82;72.28
23574;BME280;11965;53.640;10.050;2023-05-19T07:20:34;102700.69;;;12.93;66.56
23574;BME280;11965;53.640;10.050;2023-05-19T07:23:03;102698.47;;;12.71;66.05
23574;BME280;11965;53.640;10.050;2023-05-19T07:25:30;102700.34;;;12.96;67.52
23574;BME280;11965;53.640;10.050;2023-05-19T07:27:59;102695.31;;;13.26;67.58
23574;BME280;11965;53.640;10.050;2023-05-19T07:30:28;102696.44;;;13.50;66.05
23574;BME280;11965;53.640;10.050;2023-05-19T07:32:55;102694.44;;;13.84;60.99
23574;BME280;11965;53.640;10.050;2023-05-19T07:35:22;102696.69;;;13.73;64.24
23574;BME280;11965;53.640;10.050;2023-05-19T07:37:50;102697.41;;;13.83;60.28
23574;BME280;11965;53.640;10.050;2023-05-19T07:40:18;102692.03;;;13.89;60.96
23574;BME280;11965;53.640;10.050;2023-05-19T07:42:46;102707.34;;;13.85;60.92
23574;BME280;11965;53.640;10.050;2023-05-19T07:45:14;102696.91;;;13.87;62.90
23574;BME280;11965;53.640;10.050;2023-05-19T07:47:42;102687.84;;;14.10;59.93
23574;BME280;11965;53.640;10.050;2023-05-19T07:50:10;102692.06;;;14.22;62.55
23574;BME280;11965;53.640;10.050;2023-05-19T07:52:44;102695.34;;;14.34;60.70
23574;BME280;11965;53.640;10.050;2023-05-19T07:55:11;102688.75;;;14.68;56.25
23574;BME280;11965;53.640;10.050;2023-05-19T07:57:39;102687.88;;;14.75;57.44
23574;BME280;11965;53.640;10.050;2023-05-19T08:00:07;102690.31;;;14.62;56.60
23574;BME280;11965;53.640;10.050;2023-05-19T08:02:37;102682.81;;;14.71;57.06
23574;BME280;11965;53.640;10.050;2023-05-19T08:05:07;102692.25;;;14.62;58.02
23574;BME280;11965;53.640;10.050;2023-05-19T08:07:35;102680.38;;;14.68;57.86
23574;BME280;11965;53.640;10.050;2023-05-19T08:10:03;102675.44;;;14.86;59.17
23574;BME280;11965;53.640;10.050;2023-05-19T08:12:32;102683.09;;;14.92;54.54
23574;BME280;11965;53.640;10.050;2023-05-19T08:14:59;102675.50;;;15.17;54.07
23574;BME280;11965;53.640;10.050;2023-05-19T08:17:27;102675.69;;;15.16;55.09
23574;BME280;11965;53.640;10.050;2023-05-19T08:19:54;102674.09;;;15.21;53.70
23574;BME280;11965;53.640;10.050;2023-05-19T08:22:23;102673.00;;;15.31;54.83
23574;BME280;11965;53.640;10.050;2023-05-19T08:24:50;102675.50;;;15.57;54.84
23574;BME280;11965;53.640;10.050;2023-05-19T08:27:18;102675.06;;;15.76;52.43
23574;BME280;11965;53.640;10.050;2023-05-19T08:29:45;102671.88;;;15.79;51.89
23574;BME280;11965;53.640;10.050;2023-05-19T08:32:12;102675.94;;;15.37;53.76
23574;BME280;11965;53.640;10.050;2023-05-19T08:34:40;102674.22;;;15.28;55.08
23574;BME280;11965;53.640;10.050;2023-05-19T08:37:07;102677.69;;;15.38;55.54
23574;BME280;11965;53.640;10.050;2023-05-19T08:39:36;102672.66;;;15.65;53.86
23574;BME280;11965;53.640;10.050;2023-05-19T08:42:04;102676.50;;;15.64;54.01
23574;BME280;11965;53.640;10.050;2023-05-19T08:44:32;102678.81;;;15.92;53.27
23574;BME280;11965;53.640;10.050;2023-05-19T08:47:02;102663.22;;;16.20;54.42
23574;BME280;11965;53.640;10.050;2023-05-19T08:49:34;102662.91;;;16.15;53.24
23574;BME280;11965;53.640;10.050;2023-05-19T08:52:13;102662.00;;;16.38;54.11
23574;BME280;11965;53.640;10.050;2023-05-19T08:54:50;102656.88;;;16.41;52.16
23574;BME280;11965;53.640;10.050;2023-05-19T08:57:20;102661.53;;;16.11;51.88
23574;BME280;11965;53.640;10.050;2023-05-19T08:59:50;102645.78;;;15.87;54.66
23574;BME280;11965;53.640;10.050;2023-05-19T09:02:21;102650.63;;;15.93;54.77
23574;BME280;11965;53.640;10.050;2023-05-19T09:04:49;102643.91;;;16.25;53.72
23574;BME280;11965;53.640;10.050;2023-05-19T09:07:18;102651.28;;;16.41;55.54
23574;BME280;11965;53.640;10.050;2023-05-19T09:09:47;102646.22;;;16.74;54.25
23574;BME280;11965;53.640;10.050;2023-05-19T09:12:15;102640.06;;;16.79;52.49
23574;BME280;11965;53.640;10.050;2023-05-19T09:14:43;102637.06;;;16.66;54.59
23574;BME280;11965;53.640;10.050;2023-05-19T09:17:11;102646.84;;;16.85;51.89
23574;BME280;11965;53.640;10.050;2023-05-19T09:19:42;102627.81;;;16.95;49.90
23574;BME280;11965;53.640;10.050;2023-05-19T09:22:14;102647.50;;;17.16;49.91
23574;BME280;11965;53.640;10.050;2023-05-19T09:24:44;102643.06;;;17.07;50.26
23574;BME280;11965;53.640;10.050;2023-05-19T09:27:20;102641.66;;;17.33;48.67
23574;BME280;11965;53.640;10.050;2023-05-19T09:29:49;102632.50;;;17.24;50.31
23574;BME280;11965;53.640;10.050;2023-05-19T09:32:24;102642.28;;;17.28;47.64
23574;BME280;11965;53.640;10.050;2023-05-19T09:34:52;102637.53;;;17.29;49.92
23574;BME280;11965;53.640;10.050;2023-05-19T09:37:22;102636.78;;;17.56;46.57
23574;BME280;11965;53.640;10.050;2023-05-19T09:39:52;102635.63;;;17.14;49.65
23574;BME280;11965;53.640;10.050;2023-05-19T09:42:24;102631.28;;;17.12;51.07
23574;BME280;11965;53.640;10.050;2023-05-19T09:45:01;102636.56;;;17.36;50.71
23574;BME280;11965;53.640;10.050;2023-05-19T09:47:32;102630.63;;;17.46;49.47
23574;BME280;11965;53.640;10.050;2023-05-19T09:50:00;102633.94;;;17.35;50.51
23574;BME280;11965;53.640;10.050;2023-05-19T09:52:27;102627.22;;;17.65;50.10
23574;BME280;11965;53.640;10.050;2023-05-19T09:54:55;102629.34;;;17.63;48.69
23574;BME280;11965;53.640;10.050;2023-05-19T09:57:26;102629.41;;;17.70;48.87
23574;BME280;11965;53.640;10.050;2023-05-19T09:59:55;102630.47;;;17.69;47.13
23574;BME280;11965;53.640;10.050;2023-05-19T10:02:25;102620.44;;;17.96;50.29
23574;BME280;11965;53.640;10.050;2023-05-19T10:04:54;102626.03;;;18.18;47.88
23574;BME280;11965;53.640;10.050;2023-05-19T10:07:22;102623.78;;;18.06;47.94
23574;BME280;11965;53.640;10.050;2023-05-19T10:09:52;102612.44;;;17.78;48.38
23574;BME280;11965;53.640;10.050;2023-05-19T10:12:20;102622.66;;;17.64;47.01
23574;BME280;11965;53.640;10.050;2023-05-19T10:14:50;102616.06;;;17.72;48.45
23574;BME280;11965;53.640;10.050;2023-05-19T10:17:20;102612.69;;;17.98;46.62
23574;BME280;11965;53.640;10.050;2023-05-19T10:19:49;102611.03;;;18.32;48.65
23574;BME280;11965;53.640;10.050;2023-05-19T10:22:20;102610.81;;;18.05;45.43
23574;BME280;11965;53.640;10.050;2023-05-19T10:24:48;102606.94;;;18.06;45.50
23574;BME280;11965;53.640;10.050;2023-05-19T10:27:16;102593.47;;;17.95;48.74
23574;BME280;11965;53.640;10.050;2023-05-19T10:29:48;102585.88;;;18.17;46.60
23574;BME280;11965;53.640;10.050;2023-05-19T10:32:23;102587.75;;;18.10;48.19
23574;BME280;11965;53.640;10.050;2023-05-19T10:38:02;102583.41;;;18.07;44.56
23574;BME280;11965;53.640;10.050;2023-05-19T10:40:37;102593.78;;;18.07;46.17
23574;BME280;11965;53.640;10.050;2023-05-19T10:43:16;102597.78;;;17.76;46.81
23574;BME280;11965;53.640;10.050;2023-05-19T10:45:47;102591.88;;;17.71;47.48
23574;BME280;11965;53.640;10.050;2023-05-19T10:48:19;102587.41;;;17.55;47.86
23574;BME280;11965;53.640;10.050;2023-05-19T10:50:46;102583.94;;;17.75;47.36
23574;BME280;11965;53.640;10.050;2023-05-19T10:53:14;102571.78;;;17.89;49.68
23574;BME280;11965;53.640;10.050;2023-05-19T10:55:50;102582.41;;;18.15;46.76
23574;BME280;11965;53.640;10.050;2023-05-19T10:58:38;102585.31;;;18.00;47.31
23574;BME280;11965;53.640;10.050;2023-05-19T11:01:06;102573.00;;;18.29;44.28
23574;BME280;11965;53.640;10.050;2023-05-19T11:03:47;102577.16;;;18.33;43.59
23574;BME280;11965;53.640;10.050;2023-05-19T11:06:25;102585.91;;;18.24;42.37
23574;BME280;11965;53.640;10.050;2023-05-19T11:08:55;102580.72;;;17.78;45.69
23574;BME280;11965;53.640;10.050;2023-05-19T11:11:22;102575.88;;;17.86;46.20
23574;BME280;11965;53.640;10.050;2023-05-19T11:13:51;102569.06;;;17.96;47.81
23574;BME280;11965;53.640;10.050;2023-05-19T11:16:26;102576.66;;;18.02;48.70
23574;BME280;11965;53.640;10.050;2023-05-19T11:18:54;102575.09;;;17.93;45.07
23574;BME280;11965;53.640;10.050;2023-05-19T11:21:22;102572.44;;;17.70;44.81
23574;BME280;11965;53.640;10.050;2023-05-19T11:23:50;102566.59;;;17.86;46.70
23574;BME280;11965;53.640;10.050;2023-05-19T11:26:38;102563.91;;;17.78;47.44
23574;BME280;11965;53.640;10.050;2023-05-19T11:29:06;102563.44;;;17.74;48.26
23574;BME280;11965;53.640;10.050;2023-05-19T11:31:34;102552.84;;;17.91;46.42
23574;BME280;11965;53.640;10.050;2023-05-19T11:34:04;102549.16;;;18.19;48.35
23574;BME280;11965;53.640;10.050;2023-05-19T11:36:32;102537.59;;;18.28;43.73
23574;BME280;11965;53.640;10.050;2023-05-19T11:39:02;102543.47;;;18.05;45.08
23574;BME280;11965;53.640;10.050;2023-05-19T11:41:30;102543.59;;;17.76;46.00
23574;BME280;11965;53.640;10.050;2023-05-19T11:43:57;102536.78;;;18.06;46.67
23574;BME280;11965;53.640;10.050;2023-05-19T11:46:24;102534.00;;;18.13;43.51
23574;BME280;11965;53.640;10.050;2023-05-19T11:48:53;102538.09;;;18.39;45.03
23574;BME280;11965;53.640;10.050;2023-05-19T11:51:22;102542.00;;;18.38;43.88
23574;BME280;11965;53.640;10.050;2023-05-19T11:53:49;102539.19;;;18.09;44.33
23574;BME280;11965;53.640;10.050;2023-05-19T11:56:18;102544.34;;;17.41;44.67
23574;BME280;11965;53.640;10.050;2023-05-19T11:58:46;102541.81;;;17.47;48.23
23574;BME280;11965;53.640;10.050;2023-05-19T12:01:13;102542.84;;;17.82;44.24
23574;BME280;11965;53.640;10.050;2023-05-19T12:03:43;102545.06;;;18.15;44.08
23574;BME280;11965;53.640;10.050;2023-05-19T12:06:10;102538.28;;;18.37;43.74
23574;BME280;11965;53.640;10.050;2023-05-19T12:08:44;102544.38;;;18.13;41.53
23574;BME280;11965;53.640;10.050;2023-05-19T12:11:11;102551.34;;;17.74;44.54
23574;BME280;11965;53.640;10.050;2023-05-19T12:13:38;102547.78;;;17.65;43.05
23574;BME280;11965;53.640;10.050;2023-05-19T12:16:07;102534.56;;;18.02;42.27
23574;BME280;11965;53.640;10.050;2023-05-19T12:18:36;102534.94;;;17.92;42.88
23574;BME280;11965;53.640;10.050;2023-05-19T12:21:05;102536.22;;;18.18;43.38
23574;BME280;11965;53.640;10.050;2023-05-19T12:23:32;102529.44;;;18.40;40.18
23574;BME280;11965;53.640;10.050;2023-05-19T12:26:01;102529.88;;;18.37;43.01
23574;BME280;11965;53.640;10.050;2023-05-19T12:28:29;102527.53;;;18.13;41.20
23574;BME280;11965;53.640;10.050;2023-05-19T12:30:57;102524.25;;;18.37;44.79
23574;BME280;11965;53.640;10.050;2023-05-19T12:33:24;102526.72;;;18.53;41.71
23574;BME280;11965;53.640;10.050;2023-05-19T12:35:53;102519.28;;;18.74;40.19
23574;BME280;11965;53.640;10.050;2023-05-19T12:38:21;102526.28;;;18.78;40.63
23574;BME280;11965;53.640;10.050;2023-05-19T12:40:48;102520.00;;;18.48;39.60
23574;BME280;11965;53.640;10.050;2023-05-19T12:43:21;102525.81;;;18.12;40.91
23574;BME280;11965;53.640;10.050;2023-05-19T12:45:48;102507.31;;;18.24;41.86
23574;BME280;11965;53.640;10.050;2023-05-19T12:48:15;102509.25;;;18.17;41.38
23574;BME280;11965;53.640;10.050;2023-05-19T12:50:43;102506.78;;;18.07;41.92
23574;BME280;11965;53.640;10.050;2023-05-19T12:53:10;102507.72;;;18.14;40.15
23574;BME280;11965;53.640;10.050;2023-05-19T12:55:39;102497.97;;;18.45;38.81
23574;BME280;11965;53.640;10.050;2023-05-19T12:58:09;102502.38;;;18.61;39.98